createdAt,value
2023-01-22T00:00:14.823Z,42.80
2023-01-22T00:02:44.954Z,48.50
2023-01-22T00:04:55.310Z,33.70
2023-01-22T00:07:05.554Z,50.30
2023-01-22T00:09:16.229Z,47.50
2023-01-22T00:11:26.145Z,43.80
2023-01-22T00:13:37.226Z,46.30
2023-01-22T00:15:47.155Z,59.20
2023-01-22T00:17:57.206Z,47.70
2023-01-22T00:20:08.046Z,39.50
2023-01-22T00:22:20.328Z,44.60
2023-01-22T00:24:30.709Z,32.60
2023-01-22T00:26:41.550Z,40.80
2023-01-22T00:28:52.388Z,35.00
2023-01-22T00:31:09.060Z,35.10
2023-01-22T00:33:19.661Z,39.70
2023-01-22T00:35:30.278Z,39.20
2023-01-22T00:37:41.710Z,27.70
2023-01-22T00:39:52.495Z,32.00
2023-01-22T00:42:04.291Z,18.30
2023-01-22T00:44:14.367Z,23.10
2023-01-22T00:46:24.122Z,22.10
2023-01-22T00:48:34.526Z,28.60
2023-01-22T00:50:44.417Z,37.30
2023-01-22T00:52:54.347Z,29.30
2023-01-22T00:55:06.740Z,40.80
2023-01-22T00:57:22.336Z,35.90
2023-01-22T00:59:32.587Z,35.80
2023-01-22T01:01:43.544Z,32.70
2023-01-22T01:03:53.556Z,24.00
2023-01-22T01:06:06.057Z,42.50
2023-01-22T01:08:18.846Z,31.70
2023-01-22T01:12:36.345Z,34.20
2023-01-22T01:14:46.093Z,23.00
2023-01-22T01:16:58.381Z,29.80
2023-01-22T01:19:11.416Z,24.10
2023-01-22T01:21:21.451Z,41.40
2023-01-22T01:23:32.008Z,34.10
2023-01-22T01:25:45.820Z,31.80
2023-01-22T01:30:09.771Z,48.30
2023-01-22T01:32:19.886Z,35.30
2023-01-22T01:34:29.684Z,24.80
2023-01-22T01:36:49.008Z,20.80
2023-01-22T01:39:01.280Z,24.10
2023-01-22T01:41:13.836Z,34.30
2023-01-22T01:43:24.166Z,31.70
2023-01-22T01:45:35.695Z,33.50
2023-01-22T01:47:45.687Z,25.70
2023-01-22T01:49:57.327Z,39.00
2023-01-22T01:52:11.455Z,48.60
2023-01-22T01:54:22.568Z,50.10
2023-01-22T01:56:37.375Z,30.80
2023-01-22T01:58:49.008Z,46.90
2023-01-22T02:01:08.045Z,39.00
2023-01-22T02:03:18.145Z,32.80
2023-01-22T02:05:32.898Z,50.90
2023-01-22T02:07:43.218Z,31.00
2023-01-22T02:09:53.152Z,43.60
2023-01-22T02:12:04.508Z,37.70
2023-01-22T02:14:19.857Z,23.60
2023-01-22T02:16:30.040Z,40.40
2023-01-22T02:18:40.148Z,29.50
2023-01-22T02:20:58.596Z,54.10
2023-01-22T02:23:10.765Z,32.00
2023-01-22T02:25:24.716Z,35.00
2023-01-22T02:27:35.821Z,35.60
2023-01-22T02:29:50.846Z,53.30
2023-01-22T02:32:01.819Z,31.40
2023-01-22T02:34:13.302Z,54.50
2023-01-22T02:36:23.669Z,67.00
2023-01-22T02:38:34.634Z,46.00
2023-01-22T02:40:49.596Z,23.40
2023-01-22T02:43:02.544Z,31.40
2023-01-22T02:45:14.785Z,33.30
2023-01-22T02:47:27.696Z,45.40
2023-01-22T02:49:37.580Z,36.40
2023-01-22T02:51:47.633Z,31.90
2023-01-22T02:53:58.187Z,33.50
2023-01-22T02:56:12.565Z,35.30
2023-01-22T02:58:22.382Z,36.40
2023-01-22T03:00:32.766Z,29.40
2023-01-22T03:02:42.795Z,35.60
2023-01-22T03:04:52.877Z,50.50
2023-01-22T03:07:03.012Z,39.10
2023-01-22T03:09:14.168Z,34.40
2023-01-22T03:11:24.628Z,43.40
2023-01-22T03:13:52.076Z,39.00
2023-01-22T03:16:22.111Z,51.70
2023-01-22T03:18:50.614Z,34.10
2023-01-22T03:21:20.800Z,31.70
2023-01-22T03:23:33.416Z,40.40
2023-01-22T03:25:43.465Z,36.20
2023-01-22T03:28:17.167Z,42.90
2023-01-22T03:30:31.726Z,34.80
2023-01-22T03:32:41.739Z,45.70
2023-01-22T03:34:52.525Z,32.00
2023-01-22T03:37:03.082Z,52.00
2023-01-22T03:39:13.247Z,35.40
2023-01-22T03:41:23.695Z,53.70
2023-01-22T03:43:35.293Z,38.30
2023-01-22T03:45:47.534Z,48.60
2023-01-22T03:47:59.376Z,37.30
2023-01-22T03:50:14.387Z,37.50
2023-01-22T03:52:24.215Z,51.40
2023-01-22T03:54:34.516Z,48.90
2023-01-22T03:56:46.526Z,23.60
2023-01-22T03:59:09.407Z,42.50
2023-01-22T04:01:21.843Z,44.10
2023-01-22T04:03:32.875Z,22.50
2023-01-22T04:05:43.067Z,37.40
2023-01-22T04:07:54.661Z,54.50
2023-01-22T04:10:09.787Z,46.50
2023-01-22T04:12:19.916Z,28.10
2023-01-22T04:14:30.277Z,36.40
2023-01-22T04:16:42.874Z,37.00
2023-01-22T04:19:11.750Z,25.90
2023-01-22T04:21:36.551Z,64.70
2023-01-22T04:23:48.117Z,51.40
2023-01-22T04:25:57.650Z,50.20
2023-01-22T04:28:09.171Z,44.70
2023-01-22T04:30:20.064Z,67.70
2023-01-22T04:32:32.427Z,46.80
2023-01-22T04:35:05.896Z,39.60
2023-01-22T04:37:28.530Z,47.80
2023-01-22T04:39:38.338Z,49.10
2023-01-22T04:41:49.550Z,56.70
2023-01-22T04:43:59.020Z,38.90
2023-01-22T04:46:12.543Z,60.20
2023-01-22T04:48:22.645Z,58.10
2023-01-22T04:50:34.667Z,71.70
2023-01-22T04:54:54.358Z,67.90
2023-01-22T04:57:07.265Z,41.40
2023-01-22T04:59:17.133Z,34.00
2023-01-22T05:01:27.137Z,40.80
2023-01-22T05:03:36.759Z,64.30
2023-01-22T05:05:49.180Z,50.80
2023-01-22T05:08:00.249Z,57.60
2023-01-22T05:10:13.418Z,49.20
2023-01-22T05:14:33.867Z,38.20
2023-01-22T05:16:44.996Z,30.50
2023-01-22T05:18:54.695Z,50.30
2023-01-22T05:21:04.531Z,38.10
2023-01-22T05:23:15.895Z,43.40
2023-01-22T05:25:25.971Z,50.10
2023-01-22T05:27:35.995Z,45.80
2023-01-22T05:29:52.405Z,32.70
2023-01-22T05:32:20.914Z,35.00
2023-01-22T05:34:36.973Z,43.40
2023-01-22T05:36:47.573Z,35.10
2023-01-22T05:38:59.655Z,34.00
2023-01-22T05:41:10.602Z,49.40
2023-01-22T05:43:21.935Z,24.00
2023-01-22T05:45:37.245Z,39.90
2023-01-22T05:48:05.013Z,39.20
2023-01-22T05:50:23.287Z,42.80
2023-01-22T05:52:44.111Z,35.90
2023-01-22T05:54:54.407Z,44.40
2023-01-22T05:57:04.511Z,57.10
2023-01-22T05:59:15.669Z,50.50
2023-01-22T06:01:29.467Z,47.60
2023-01-22T06:03:41.502Z,56.10
2023-01-22T06:06:00.535Z,29.70
2023-01-22T06:08:10.497Z,31.30
2023-01-22T06:10:27.686Z,44.50
2023-01-22T06:12:37.578Z,55.30
2023-01-22T06:14:47.743Z,35.40
2023-01-22T06:16:58.831Z,35.80
2023-01-22T06:19:22.970Z,34.70
2023-01-22T06:21:36.993Z,50.80
2023-01-22T06:23:47.336Z,32.80
2023-01-22T06:25:59.765Z,49.10
2023-01-22T06:28:09.445Z,45.50
2023-01-22T06:30:21.446Z,36.30
2023-01-22T06:32:31.535Z,33.60
2023-01-22T06:34:42.457Z,49.80
2023-01-22T06:36:52.915Z,45.50
2023-01-22T06:39:03.060Z,47.40
2023-01-22T06:41:19.901Z,43.00
2023-01-22T06:43:33.181Z,60.90
2023-01-22T06:45:43.888Z,35.70
2023-01-22T06:47:54.597Z,43.20
2023-01-22T06:50:05.395Z,38.30
2023-01-22T06:52:16.674Z,37.30
2023-01-22T06:54:26.878Z,42.60
2023-01-22T06:56:37.004Z,45.90
2023-01-22T06:58:47.215Z,32.20
2023-01-22T07:01:01.297Z,38.40
2023-01-22T07:03:14.009Z,44.00
2023-01-22T07:05:24.468Z,36.20
2023-01-22T07:07:34.967Z,39.00
2023-01-22T07:09:44.690Z,35.20
2023-01-22T07:11:57.856Z,43.10
2023-01-22T07:14:07.777Z,41.50
2023-01-22T07:16:17.720Z,32.40
2023-01-22T07:18:28.057Z,31.80
2023-01-22T07:20:38.881Z,39.60
2023-01-22T07:22:49.033Z,26.60
2023-01-22T07:24:59.290Z,30.90
2023-01-22T07:27:09.149Z,45.00
2023-01-22T07:29:19.787Z,33.40
2023-01-22T07:31:29.968Z,41.90
2023-01-22T07:33:40.387Z,30.10
2023-01-22T07:35:58.228Z,41.90
2023-01-22T07:38:08.448Z,36.20
2023-01-22T07:40:19.519Z,40.00
2023-01-22T07:42:30.057Z,37.20
2023-01-22T07:44:40.873Z,54.20
2023-01-22T07:46:50.711Z,48.80
2023-01-22T07:49:00.828Z,64.80
2023-01-22T07:51:13.030Z,35.10
2023-01-22T07:53:23.027Z,36.30
2023-01-22T07:55:33.098Z,25.80
2023-01-22T07:57:43.020Z,44.50
2023-01-22T07:59:53.386Z,67.30
2023-01-22T08:02:06.291Z,45.10
2023-01-22T08:04:17.063Z,36.00
2023-01-22T08:06:27.529Z,34.60
2023-01-22T08:08:37.151Z,28.80
2023-01-22T08:10:47.206Z,39.50
2023-01-22T08:12:57.256Z,54.70
2023-01-22T08:15:07.677Z,56.50
2023-01-22T08:17:17.909Z,41.70
2023-01-22T08:19:29.833Z,25.10
2023-01-22T08:21:39.836Z,41.60
2023-01-22T08:23:49.775Z,54.20
2023-01-22T08:26:02.236Z,40.00
2023-01-22T08:30:20.840Z,48.40
2023-01-22T08:32:31.196Z,40.80
2023-01-22T08:34:41.466Z,42.90
2023-01-22T08:36:51.672Z,51.70
2023-01-22T08:39:01.758Z,34.60
2023-01-22T08:41:11.578Z,30.50
2023-01-22T08:43:21.509Z,31.80
2023-01-22T08:45:32.312Z,37.50
2023-01-22T08:47:42.547Z,35.20
2023-01-22T08:49:52.207Z,38.80
2023-01-22T08:52:02.394Z,68.50
2023-01-22T08:54:12.858Z,39.60
2023-01-22T08:56:23.627Z,25.90
2023-01-22T08:58:33.335Z,58.10
2023-01-22T09:00:44.894Z,55.30
2023-01-22T09:02:58.591Z,37.80
2023-01-22T09:05:09.946Z,32.50
2023-01-22T09:07:19.799Z,42.90
2023-01-22T09:09:29.556Z,40.00
2023-01-22T09:11:40.384Z,19.10
2023-01-22T09:13:51.556Z,36.20
2023-01-22T09:16:01.729Z,44.10
2023-01-22T09:18:11.361Z,42.40
2023-01-22T09:20:21.909Z,43.90
2023-01-22T09:22:31.817Z,32.30
2023-01-22T09:24:41.619Z,45.00
2023-01-22T09:26:51.455Z,38.40
2023-01-22T09:29:04.513Z,35.40
2023-01-22T09:31:16.593Z,29.30
2023-01-22T09:33:26.495Z,46.60
2023-01-22T09:35:37.084Z,34.50
2023-01-22T09:37:46.986Z,43.90
2023-01-22T09:39:57.045Z,31.50
2023-01-22T09:42:08.679Z,33.60
2023-01-22T09:44:24.476Z,44.20
2023-01-22T09:46:39.569Z,31.20
2023-01-22T09:48:53.918Z,47.80
2023-01-22T09:51:04.637Z,30.30
2023-01-22T09:53:19.227Z,50.10
2023-01-22T09:55:32.667Z,62.40
2023-01-22T09:57:46.416Z,40.10
2023-01-22T09:59:58.734Z,59.40
2023-01-22T10:02:25.640Z,33.90
2023-01-22T10:04:41.556Z,46.50
2023-01-22T10:06:53.147Z,66.00
2023-01-22T10:09:14.660Z,48.70
2023-01-22T10:11:25.129Z,43.20
2023-01-22T10:13:37.610Z,41.00
2023-01-22T10:17:57.040Z,40.10
2023-01-22T10:20:14.367Z,28.30
2023-01-22T10:22:26.324Z,68.10
2023-01-22T10:24:36.228Z,21.00
2023-01-22T10:26:50.486Z,48.80
2023-01-22T10:29:06.919Z,52.60
2023-01-22T10:31:28.678Z,45.40
2023-01-22T10:33:44.814Z,53.70
2023-01-22T10:35:56.719Z,38.60
2023-01-22T10:38:06.896Z,33.80
2023-01-22T10:40:27.570Z,28.40
2023-01-22T10:42:37.426Z,37.30
2023-01-22T10:44:47.582Z,53.10
2023-01-22T10:47:09.306Z,33.90
2023-01-22T10:49:22.579Z,43.80
2023-01-22T10:51:36.591Z,38.30
2023-01-22T10:53:54.125Z,64.20
2023-01-22T10:56:04.870Z,50.00
2023-01-22T10:58:21.770Z,62.70
2023-01-22T11:00:51.981Z,36.40
2023-01-22T11:03:02.860Z,47.90
2023-01-22T11:05:29.716Z,33.10
2023-01-22T11:07:40.620Z,50.10
2023-01-22T11:09:57.527Z,29.00
2023-01-22T11:12:17.601Z,19.20
2023-01-22T11:14:31.744Z,60.90
2023-01-22T11:16:42.847Z,39.20
2023-01-22T11:18:59.945Z,40.30
2023-01-22T11:21:16.206Z,35.20
2023-01-22T11:23:35.295Z,35.10
2023-01-22T11:25:55.349Z,37.80
2023-01-22T11:28:18.448Z,41.80
2023-01-22T11:30:52.524Z,56.90
2023-01-22T11:33:14.435Z,65.60
2023-01-22T11:35:30.540Z,52.20
2023-01-22T11:37:53.846Z,27.50
2023-01-22T11:40:19.786Z,51.80
2023-01-22T11:42:45.815Z,38.70
2023-01-22T11:45:08.246Z,46.00
2023-01-22T11:47:32.156Z,23.20
2023-01-22T11:49:56.212Z,26.50
2023-01-22T11:52:17.666Z,31.80
2023-01-22T11:54:41.552Z,58.30
2023-01-22T11:57:09.308Z,72.00
2023-01-22T11:59:32.656Z,51.40
2023-01-22T12:01:58.955Z,37.20
2023-01-22T12:04:36.947Z,41.60
2023-01-22T12:07:12.345Z,24.60
2023-01-22T12:09:26.895Z,15.50
2023-01-22T12:11:54.878Z,19.80
2023-01-22T12:14:33.338Z,13.40
2023-01-22T12:16:53.246Z,16.90
2023-01-22T12:19:22.715Z,12.10
2023-01-22T12:21:47.155Z,11.00
2023-01-22T12:24:04.068Z,12.00
2023-01-22T12:26:16.859Z,17.90
2023-01-22T12:28:30.352Z,19.70
2023-01-22T12:30:49.735Z,23.60
2023-01-22T12:33:05.154Z,14.20
2023-01-22T12:35:20.200Z,7.60
2023-01-22T12:37:36.204Z,6.30
2023-01-22T12:40:00.976Z,16.10
2023-01-22T12:42:24.948Z,13.60
2023-01-22T12:44:51.396Z,11.70
2023-01-22T12:47:09.626Z,22.90
2023-01-22T12:49:21.545Z,20.30
2023-01-22T12:51:38.115Z,10.50
2023-01-22T12:53:47.769Z,14.10
2023-01-22T12:56:06.931Z,22.70
2023-01-22T12:58:26.915Z,12.00
2023-01-22T13:00:39.557Z,19.10
2023-01-22T13:02:49.226Z,16.40
2023-01-22T13:05:11.305Z,45.60
2023-01-22T13:07:26.089Z,41.40
2023-01-22T13:09:40.092Z,15.80
2023-01-22T13:11:49.978Z,10.20
2023-01-22T13:14:14.736Z,22.10
2023-01-22T13:16:30.544Z,26.90
2023-01-22T13:18:49.642Z,8.70
2023-01-22T13:21:04.470Z,14.50
2023-01-22T13:23:18.946Z,7.30
2023-01-22T13:25:32.725Z,13.40
2023-01-22T13:27:48.715Z,43.40
2023-01-22T13:30:11.197Z,6.90
2023-01-22T13:32:24.534Z,15.60
2023-01-22T13:34:35.225Z,14.10
2023-01-22T13:36:52.799Z,8.50
2023-01-22T13:39:03.015Z,7.50
2023-01-22T13:41:20.470Z,8.50
2023-01-22T13:43:31.925Z,7.30
2023-01-22T13:45:44.416Z,5.30
2023-01-22T13:47:58.177Z,7.20
2023-01-22T13:50:08.747Z,14.10
2023-01-22T13:52:21.047Z,8.10
2023-01-22T13:54:36.237Z,33.60
2023-01-22T13:56:46.396Z,15.50
2023-01-22T13:59:06.157Z,10.00
2023-01-22T14:01:27.771Z,7.10
2023-01-22T14:03:37.887Z,8.70
2023-01-22T14:05:49.519Z,5.00
2023-01-22T14:08:10.369Z,16.60
2023-01-22T14:10:22.239Z,8.30
2023-01-22T14:12:31.887Z,14.80
2023-01-22T14:14:44.938Z,7.00
2023-01-22T14:16:55.114Z,10.70
2023-01-22T14:19:06.290Z,9.80
2023-01-22T14:21:16.138Z,11.50
2023-01-22T14:23:25.863Z,14.50
2023-01-22T14:25:38.372Z,15.20
2023-01-22T14:27:50.316Z,16.00
2023-01-22T14:30:00.459Z,21.90
2023-01-22T14:32:11.297Z,34.00
2023-01-22T14:34:21.868Z,18.60
2023-01-22T14:36:31.705Z,13.60
2023-01-22T14:38:41.437Z,18.30
2023-01-22T14:40:51.076Z,24.90
2023-01-22T14:43:03.677Z,22.30
2023-01-22T14:45:16.632Z,30.70
2023-01-22T14:47:27.336Z,23.00
2023-01-22T14:49:37.509Z,19.60
2023-01-22T14:51:48.071Z,15.50
2023-01-22T14:53:58.839Z,23.00
2023-01-22T14:56:09.010Z,13.70
2023-01-22T14:58:19.055Z,9.40
2023-01-22T15:00:30.240Z,7.80
2023-01-22T15:02:40.480Z,5.90
2023-01-22T15:04:50.620Z,8.00
2023-01-22T15:07:00.479Z,10.40
2023-01-22T15:09:10.352Z,14.50
2023-01-22T15:11:20.028Z,11.40
2023-01-22T15:13:30.302Z,9.70
2023-01-22T15:15:40.354Z,9.50
2023-01-22T15:17:50.725Z,6.60
2023-01-22T15:20:00.559Z,7.90
2023-01-22T15:22:10.497Z,10.00
2023-01-22T15:24:20.639Z,10.40
2023-01-22T15:26:32.977Z,6.00
2023-01-22T15:28:42.929Z,8.20
2023-01-22T15:30:54.294Z,10.70
2023-01-22T15:33:04.526Z,9.50
2023-01-22T15:35:14.901Z,12.30
2023-01-22T15:37:25.640Z,9.50
2023-01-22T15:39:35.695Z,12.20
2023-01-22T15:41:45.887Z,9.30
2023-01-22T15:44:01.025Z,7.00
2023-01-22T15:46:11.196Z,5.40
2023-01-22T15:48:21.416Z,12.40
2023-01-22T15:50:31.831Z,4.80
2023-01-22T15:52:41.446Z,7.70
2023-01-22T15:54:53.918Z,14.10
2023-01-22T15:57:04.176Z,8.20
2023-01-22T15:59:14.729Z,5.40
2023-01-22T16:01:26.115Z,3.50
2023-01-22T16:03:36.206Z,4.40
2023-01-22T16:05:45.958Z,4.40
2023-01-22T16:07:55.747Z,9.70
2023-01-22T16:10:06.608Z,7.20
2023-01-22T16:12:16.888Z,7.10
2023-01-22T16:14:28.938Z,9.20
2023-01-22T16:16:40.287Z,10.50
2023-01-22T16:18:51.769Z,7.90
2023-01-22T16:21:04.781Z,14.60
2023-01-22T16:23:14.595Z,6.60
2023-01-22T16:25:24.336Z,8.70
2023-01-22T16:27:34.967Z,6.60
2023-01-22T16:29:45.276Z,7.70
2023-01-22T16:31:55.059Z,8.10
2023-01-22T16:34:10.307Z,6.10
2023-01-22T16:36:22.091Z,5.70
2023-01-22T16:38:32.646Z,2.50
2023-01-22T16:40:43.209Z,5.80
2023-01-22T16:43:03.209Z,3.40
2023-01-22T16:45:14.017Z,6.10
2023-01-22T16:47:24.345Z,7.00
2023-01-22T16:49:36.016Z,2.60
2023-01-22T16:51:47.940Z,8.90
2023-01-22T16:53:58.386Z,8.60
2023-01-22T16:56:09.036Z,2.00
2023-01-22T16:58:19.497Z,5.10
2023-01-22T17:00:29.565Z,5.40
2023-01-22T17:02:38.684Z,5.70
2023-01-22T17:04:48.821Z,8.80
2023-01-22T17:07:00.706Z,11.40
2023-01-22T17:09:14.167Z,10.80
2023-01-22T17:11:24.788Z,5.90
2023-01-22T17:13:34.855Z,6.60
2023-01-22T17:15:47.999Z,4.80
2023-01-22T17:17:58.332Z,14.60
2023-01-22T17:20:08.866Z,10.10
2023-01-22T17:22:18.626Z,6.70
2023-01-22T17:24:28.885Z,6.20
2023-01-22T17:26:39.273Z,8.90
2023-01-22T17:28:49.515Z,8.00
2023-01-22T17:30:59.286Z,31.40
2023-01-22T17:33:09.284Z,21.90
2023-01-22T17:35:19.979Z,22.00
2023-01-22T17:37:29.896Z,10.20
2023-01-22T17:39:39.847Z,9.10
2023-01-22T17:41:50.097Z,7.80
2023-01-22T17:44:00.486Z,8.70
2023-01-22T17:46:14.253Z,5.70
2023-01-22T17:48:23.978Z,9.40
2023-01-22T17:50:33.786Z,14.30
2023-01-22T17:52:44.535Z,8.10
2023-01-22T17:54:56.716Z,6.40
2023-01-22T17:57:06.895Z,15.30
2023-01-22T17:59:17.263Z,12.10
2023-01-22T18:01:30.509Z,6.60
2023-01-22T18:03:41.215Z,9.30
2023-01-22T18:05:55.268Z,14.50
2023-01-22T18:08:05.137Z,13.40
2023-01-22T18:10:16.713Z,3.50
2023-01-22T18:12:27.086Z,5.00
2023-01-22T18:14:36.775Z,9.90
2023-01-22T18:16:47.324Z,9.50
2023-01-22T18:18:57.626Z,8.30
2023-01-22T18:21:09.398Z,8.80
2023-01-22T18:23:20.999Z,10.10
2023-01-22T18:25:30.607Z,12.30
2023-01-22T18:27:40.578Z,12.90
2023-01-22T18:29:50.515Z,10.80
2023-01-22T18:32:01.541Z,13.60
2023-01-22T18:34:15.562Z,7.90
2023-01-22T18:36:26.595Z,13.80
2023-01-22T18:38:37.438Z,18.80
2023-01-22T18:40:47.444Z,20.40
2023-01-22T18:42:57.436Z,11.90
2023-01-22T18:45:08.021Z,20.10
2023-01-22T18:47:17.847Z,15.00
2023-01-22T18:49:28.645Z,8.40
2023-01-22T18:51:39.186Z,12.20
2023-01-22T18:53:49.210Z,11.70
2023-01-22T18:56:02.964Z,14.20
2023-01-22T18:58:22.395Z,14.30
2023-01-22T19:00:32.215Z,9.20
2023-01-22T19:02:42.490Z,13.20
2023-01-22T19:04:54.285Z,12.70
2023-01-22T19:07:04.308Z,12.60
2023-01-22T19:09:15.416Z,13.40
2023-01-22T19:11:26.957Z,12.50
2023-01-22T19:13:37.035Z,11.90
2023-01-22T19:15:46.772Z,14.40
2023-01-22T19:17:56.497Z,11.70
2023-01-22T19:20:09.017Z,16.60
2023-01-22T19:22:19.296Z,16.00
2023-01-22T19:24:29.064Z,13.60
2023-01-22T19:26:39.960Z,13.40
2023-01-22T19:28:49.915Z,8.60
2023-01-22T19:30:59.796Z,18.20
2023-01-22T19:33:09.735Z,9.90
2023-01-22T19:35:20.700Z,17.70
2023-01-22T19:37:31.683Z,9.00
2023-01-22T19:39:41.729Z,11.30
2023-01-22T19:41:52.229Z,11.00
2023-01-22T19:44:03.476Z,10.50
2023-01-22T19:46:16.170Z,8.60
2023-01-22T19:48:26.905Z,15.60
2023-01-22T19:50:36.773Z,13.70
2023-01-22T19:52:46.736Z,36.10
2023-01-22T19:54:56.759Z,30.10
2023-01-22T19:57:06.496Z,67.30
2023-01-22T19:59:19.214Z,94.80
2023-01-22T20:01:29.376Z,65.30
2023-01-22T20:03:38.996Z,33.40
2023-01-22T20:05:48.811Z,33.50
2023-01-22T20:08:01.592Z,44.30
2023-01-22T20:10:14.528Z,27.10
2023-01-22T20:12:24.656Z,54.50
2023-01-22T20:14:38.346Z,30.30
2023-01-22T20:16:48.096Z,49.10
2023-01-22T20:18:59.153Z,51.30
2023-01-22T20:21:09.385Z,65.20
2023-01-22T20:23:19.370Z,27.50
2023-01-22T20:25:31.376Z,40.20
2023-01-22T20:27:41.585Z,34.10
2023-01-22T20:29:51.366Z,39.40
2023-01-22T20:32:01.209Z,71.70
2023-01-22T20:34:11.395Z,45.00
2023-01-22T20:36:21.697Z,46.30
2023-01-22T20:38:32.486Z,49.50
2023-01-22T20:40:46.668Z,32.90
2023-01-22T20:42:57.086Z,16.00
2023-01-22T20:45:08.435Z,44.70
2023-01-22T20:47:18.420Z,40.50
2023-01-22T20:49:28.076Z,52.10
2023-01-22T20:51:38.787Z,70.30
2023-01-22T20:53:49.387Z,42.90
2023-01-22T20:56:07.858Z,48.70
2023-01-22T20:58:18.285Z,32.70
2023-01-22T21:00:28.355Z,58.30
2023-01-22T21:02:38.475Z,48.50
2023-01-22T21:04:48.706Z,41.40
2023-01-22T21:06:59.266Z,33.40
2023-01-22T21:09:11.038Z,40.10
2023-01-22T21:11:22.435Z,36.00
2023-01-22T21:13:33.041Z,37.70
2023-01-22T21:15:43.468Z,44.30
2023-01-22T21:17:55.325Z,41.40
2023-01-22T21:20:06.715Z,31.60
2023-01-22T21:22:16.684Z,51.20
2023-01-22T21:24:27.417Z,32.50
2023-01-22T21:26:37.475Z,29.20
2023-01-22T21:28:48.705Z,12.10
2023-01-22T21:30:58.696Z,23.20
2023-01-22T21:33:09.013Z,28.30
2023-01-22T21:35:19.270Z,19.70
2023-01-22T21:37:29.516Z,11.30
2023-01-22T21:39:45.507Z,14.40
2023-01-22T21:42:16.927Z,14.50
2023-01-22T21:44:46.471Z,11.70
2023-01-22T21:46:56.715Z,17.60
2023-01-22T21:49:17.896Z,12.60
2023-01-22T21:51:28.856Z,22.50
2023-01-22T21:53:39.089Z,22.30
2023-01-22T21:55:55.594Z,28.20
2023-01-22T21:58:07.782Z,32.20
2023-01-22T22:00:20.522Z,45.10
2023-01-22T22:02:30.364Z,32.10
2023-01-22T22:04:40.415Z,41.70
2023-01-22T22:06:50.864Z,35.60
2023-01-22T22:09:01.910Z,24.00
2023-01-22T22:11:12.105Z,31.80
2023-01-22T22:13:22.737Z,16.30
2023-01-22T22:15:33.580Z,24.50
2023-01-22T22:17:46.811Z,15.20
2023-01-22T22:19:57.786Z,17.70
2023-01-22T22:22:08.525Z,34.50
2023-01-22T22:24:19.476Z,46.10
2023-01-22T22:26:29.985Z,33.20
2023-01-22T22:28:40.226Z,23.00
2023-01-22T22:30:50.409Z,41.00
2023-01-22T22:33:00.466Z,38.90
2023-01-22T22:35:11.582Z,47.70
2023-01-22T22:37:21.445Z,44.90
2023-01-22T22:39:31.387Z,53.30
2023-01-22T22:41:41.455Z,32.30
2023-01-22T22:43:55.666Z,15.90
2023-01-22T22:46:10.385Z,30.10
2023-01-22T22:48:21.547Z,21.50
2023-01-22T22:50:31.468Z,27.30
2023-01-22T22:52:41.307Z,43.40
2023-01-22T22:54:51.438Z,72.70
2023-01-22T22:57:01.297Z,43.60
2023-01-22T22:59:11.346Z,28.80
2023-01-22T23:01:22.627Z,29.20
2023-01-22T23:03:34.147Z,22.00
2023-01-22T23:05:44.008Z,29.10
2023-01-22T23:07:54.226Z,41.20
2023-01-22T23:10:04.686Z,33.30
2023-01-22T23:12:15.523Z,28.00
2023-01-22T23:14:25.223Z,29.40
2023-01-22T23:16:38.299Z,29.90
2023-01-22T23:18:48.682Z,30.00
2023-01-22T23:20:58.832Z,36.60
2023-01-22T23:23:08.957Z,37.00
2023-01-22T23:25:19.687Z,19.90
2023-01-22T23:27:30.812Z,31.00
2023-01-22T23:29:40.546Z,22.60
2023-01-22T23:31:51.288Z,31.00
2023-01-22T23:34:02.891Z,31.50
2023-01-22T23:36:15.556Z,30.00
2023-01-22T23:38:25.314Z,30.60
2023-01-22T23:40:35.267Z,39.50
2023-01-22T23:42:49.137Z,29.00
2023-01-22T23:44:58.988Z,28.50
2023-01-22T23:47:08.811Z,46.00
2023-01-22T23:49:18.993Z,18.90
2023-01-22T23:51:29.446Z,30.80
2023-01-22T23:53:42.099Z,45.30
2023-01-22T23:57:59.617Z,20.90
